Cole Grade (215) Station Data

Red Flag Warning: No
Fire Weather Zone: 250
SDGE Region: North East
Lat/Lon: 33.285/-117.016

Observations

Time Wind Speed/Gust Temp(F) RH Fuel Moist Fuel Temp(F) Dewpt(F) Tmax(F) Tmin(F) Accum Precip 10-min Precip SL Press(mb)
2/27 11:40pm 235 2 G 5 49° 97% - - 48° 52.6° 44.5° - - 1013.0
2/27 11:20pm 296 1 G 3 49° 97% - - 48° 52.6° 44.5° - - 1013.0
2/27 11:10pm 264 1 G 3 49° 97% - - 48° 52.6° 44.5° - - 1013.0
2/27 11:00pm 229 1 G 4 49° 97% - - 48° 52.6° 44.5° - - 1013.0
2/27 10:50pm 243 3 G 5 49° 97% - - 48° 52.6° 44.5° - - 1013.0
2/27 10:40pm 258 2 G 5 49° 97% - - 48° 52.6° 44.5° - - 1013.0
2/27 10:30pm 185 2 G 5 49° 97% - - 48° 52.6° 44.5° - - 1013.0
2/27 10:20pm 41 1 G 3 49° 97% - - 48° 52.6° 44.5° - - 1013.0
2/27 10:10pm 343 2 G 4 49° 97% - - 48° 52.6° 44.5° - - 1013.0
2/27 10:00pm 301 2 G 5 49° 97% - - 48° 52.6° 44.5° - - 1013.0
2/27 9:50pm 270 3 G 6 49° 97% - - 48° 52.6° 44.5° - - 1013.0
2/27 9:40pm 256 5 G 9 49° 97% - - 48° 52.6° 44.5° - - 1013.0
2/27 9:30pm 272 5 G 10 49° 97% - - 48° 52.6° 44.5° - - 1013.0
2/27 9:20pm 272 4 G 7 49° 97% - - 48° 52.6° 44.5° - - 1013.0
2/27 9:10pm 244 5 G 8 50° 97% - - 49° 52.6° 44.5° - - 1012.0
2/27 9:00pm 219 2 G 5 50° 97% - - 49° 52.6° 44.5° - - 1012.0
2/27 8:50pm 216 2 G 4 50° 97% - - 49° 52.6° 44.5° - - 1012.0
2/27 8:40pm 209 2 G 4 49° 97% - - 48° 52.6° 44.5° - - 1012.0
2/27 8:30pm 220 2 G 3 49° 96% - - 48° 52.6° 44.5° - - 1012.0
2/27 8:20pm 257 2 G 4 49° 96% - - 48° 52.6° 44.5° - - 1012.0
2/27 8:10pm 254 2 G 4 49° 96% - - 48° 52.6° 44.5° - - 1012.0
2/27 8:00pm 285 3 G 6 50° 96% - - 49° 52.6° 44.5° - - 1012.0
2/27 7:50pm 246 4 G 8 50° 96% - - 49° 52.6° 44.5° - - 1012.0
2/27 7:40pm 220 8 G 17 50° 96% - - 49° 52.6° 44.5° - - 1012.0
2/27 7:30pm 220 13 G 24 50° 96% - - 49° 52.6° 44.5° - - 1012.0
2/27 7:20pm 213 11 G 19 50° 96% - - 49° 52.6° 44.5° - - 1012.0
2/27 7:10pm 210 11 G 18 50° 96% - - 49° 52.6° 44.5° - - 1012.0
2/27 7:00pm 218 11 G 22 50° 96% - - 49° 52.6° 44.5° - - 1012.0
2/27 6:50pm 217 10 G 16 51° 96% - - 49° 52.6° 44.5° - - 1012.0
2/27 6:40pm 220 9 G 15 51° 96% - - 49° 52.6° 44.5° - - 1012.0
2/27 6:30pm 219 13 G 26 51° 95% - - 49° 52.6° 44.5° - - 1012.0
2/27 6:20pm 214 13 G 24 51° 95% - - 49° 52.6° 44.5° - - 1012.0
2/27 6:10pm 213 13 G 24 51° 95% - - 49° 52.6° 44.5° - - 1012.0
2/27 6:00pm 215 13 G 22 51° 96% - - 50° 52.6° 44.5° - - 1012.0
2/27 5:50pm 214 13 G 22 51° 96% - - 50° 52.6° 44.5° - - 1012.0
2/27 5:40pm 218 15 G 28 51° 96% - - 50° 52.6° 44.5° - - 1012.0
2/27 5:30pm 220 14 G 29 51° 96% - - 50° 52.6° 44.5° - - 1012.0
2/27 5:20pm 218 13 G 23 51° 96% - - 50° 52.6° 44.5° - - 1012.0
2/27 5:10pm 217 8 G 14 51° 96% - - 50° 52.6° 44.5° - - 1012.0
2/27 5:00pm 211 10 G 17 51° 96% - - 50° 52.6° 44.5° - - 1012.0
2/27 4:50pm 209 10 G 16 51° 96% - - 50° 52.6° 44.5° - - 1012.0
2/27 4:40pm 210 11 G 17 51° 96% - - 50° 52.6° 44.5° - - 1012.0
2/27 4:30pm 208 13 G 22 51° 96% - - 50° 52.6° 44.5° - - 1012.0
2/27 4:20pm 203 13 G 23 51° 96% - - 50° 52.6° 44.5° - - 1012.0
2/27 4:10pm 203 9 G 17 51° 96% - - 50° 52.6° 44.5° - - 1012.0
2/27 4:00pm 210 11 G 19 51° 96% - - 50° 52.6° 44.5° - - 1012.0
2/27 3:50pm 208 12 G 20 51° 96% - - 50° 52.6° 44.5° - - 1012.0
2/27 3:40pm 200 10 G 17 51° 96% - - 50° 52.6° 44.5° - - 1012.0
2/27 3:30pm 201 11 G 18 51° 96% - - 50° 52.6° 44.5° - - 1012.0
2/27 3:20pm 203 12 G 20 51° 96% - - 50° 52.6° 44.5° - - 1012.0
2/27 3:10pm 208 12 G 19 52° 96% - - 51° 52.6° 44.5° - - 1012.0
2/27 3:00pm 206 15 G 24 52° 96% - - 51° 52.6° 44.5° - - 1012.0
2/27 2:50pm 203 15 G 25 52° 96% - - 51° 52.6° 44.5° - - 1012.0
2/27 2:40pm 205 15 G 24 52° 96% - - 51° 52.6° 44.5° - - 1012.0
2/27 2:30pm 208 14 G 25 52° 96% - - 51° 52.6° 44.5° - - 1012.0
2/27 2:20pm 204 15 G 27 52° 96% - - 51° 52.6° 44.5° - - 1012.0
2/27 2:10pm 203 13 G 26 52° 96% - - 51° 52.6° 44.5° - - 1012.0
2/27 2:00pm 207 14 G 21 52° 96% - - 51° 52.6° 44.5° - - 1012.0
2/27 1:50pm 211 15 G 26 52° 96% - - 51° 52.6° 44.5° - - 1012.0
2/27 1:40pm 208 12 G 21 52° 96% - - 51° 52.6° 44.5° - - 1012.0
2/27 1:30pm 205 13 G 21 52° 96% - - 51° 52.6° 44.5° - - 1012.0
2/27 1:20pm 208 12 G 20 52° 96% - - 51° 52.6° 44.5° - - 1012.0
2/27 1:10pm 205 10 G 16 52° 96% - - 51° 52.6° 44.5° - - 1013.0
2/27 1:00pm 190 7 G 11 52° 96% - - 51° 52.6° 44.5° - - 1013.0
2/27 12:50pm 190 7 G 12 52° 96% - - 50° 52.6° 44.5° - - 1013.0
2/27 12:40pm 195 8 G 12 51° 96% - - 50° 52.6° 44.5° - - 1013.0
2/27 12:30pm 194 9 G 15 51° 96% - - 50° 52.6° 44.5° - - 1014.0
2/27 12:20pm 197 8 G 14 51° 96% - - 50° 52.6° 44.5° - - 1014.0
2/27 12:10pm 187 6 G 10 51° 96% - - 50° 52.6° 44.5° - - 1014.0
2/27 12:00pm 192 8 G 16 51° 96% - - 50° 52.6° 44.5° - - 1014.0
2/27 11:50am 199 8 G 14 51° 96% - - 50° 52.6° 44.5° - - 1014.0
2/27 11:40am 205 7 G 12 51° 96% - - 50° 52.6° 44.5° - - 1014.0
2/27 11:30am 206 8 G 14 51° 96% - - 50° 52.6° 44.5° - - 1015.0
2/27 11:20am 203 9 G 18 52° 96% - - 50° 52.6° 44.5° - - 1015.0
2/27 11:10am 203 12 G 22 52° 96% - - 51° 52.6° 44.5° - - 1015.0
2/27 11:00am 198 10 G 19 52° 96% - - 51° 52.6° 44.5° - - 1015.0
2/27 10:50am 203 13 G 25 52° 96% - - 51° 52.6° 44.5° - - 1014.0
2/27 10:40am 195 11 G 19 52° 96% - - 51° 52.6° 44.5° - - 1014.0
2/27 10:30am 198 12 G 20 52° 96% - - 51° 52.6° 44.5° - - 1014.0
2/27 10:20am 207 11 G 17 52° 96% - - 51° 52.6° 44.5° - - 1014.0
2/27 10:10am 214 11 G 19 52° 96% - - 51° 52.6° 44.5° - - 1014.0
2/27 10:00am 206 8 G 16 52° 96% - - 51° 52.6° 44.5° - - 1014.0
2/27 9:50am 207 8 G 14 52° 96% - - 51° 52.6° 44.5° - - 1014.0
2/27 9:40am 205 7 G 11 52° 96% - - 51° 52.6° 44.5° - - 1014.0
2/27 9:30am 205 8 G 14 52° 96% - - 51° 52.4° 44.5° - - 1014.0
2/27 9:20am 207 8 G 13 52° 96% - - 51° 52.4° 44.5° - - 1014.0
2/27 9:10am 202 9 G 14 52° 96% - - 51° 52.4° 44.5° - - 1014.0
2/27 9:00am 202 8 G 15 52° 96% - - 51° 52.4° 44.5° - - 1014.0
2/27 8:50am 207 7 G 12 52° 96% - - 51° 52.4° 44.5° - - 1014.0
2/27 8:40am 202 7 G 12 52° 96% - - 51° 52.4° 44.5° - - 1014.0
2/27 8:30am 204 9 G 14 52° 96% - - 51° 52.3° 44.5° - - 1014.0
2/27 8:20am 201 7 G 14 52° 96% - - 51° 52.2° 44.5° - - 1014.0
2/27 8:10am 205 7 G 12 52° 96% - - 51° 52° 44.5° - - 1014.0
2/27 8:00am 198 7 G 11 52° 96% - - 51° 51.9° 44.5° - - 1014.0
2/27 7:50am 193 7 G 13 52° 96% - - 50° 51.8° 44.5° - - 1014.0
2/27 7:40am 195 6 G 11 52° 95% - - 50° 51.8° 44.5° - - 1014.0
2/27 7:30am 193 6 G 11 51° 95% - - 50° 51.7° 44.5° - - 1014.0
2/27 7:20am 188 7 G 12 51° 95% - - 50° 51.6° 44.5° - - 1014.0
2/27 7:10am 181 4 G 10 51° 95% - - 50° 51.2° 44.5° - - 1014.0
2/27 7:00am 175 3 G 7 50° 95% - - 49° 50.9° 44.5° - - 1014.0
2/27 6:50am 166 3 G 6 50° 95% - - 49° 50.1° 44.5° - - 1014.0
2/27 6:40am 159 3 G 5 50° 95% - - 48° 50° 44.5° - - 1014.0
2/27 6:30am 118 3 G 7 50° 95% - - 48° 49.8° 44.5° - - 1014.0
2/27 6:20am 117 3 G 6 49° 95% - - 48° 49.7° 44.5° - - 1014.0
2/27 6:10am 102 4 G 6 49° 95% - - 48° 49.4° 44.5° - - 1014.0
2/27 6:00am 87 4 G 7 49° 95% - - 47° 49.1° 44.5° - - 1014.0
2/27 5:50am 83 4 G 6 48° 95% - - 47° 48.8° 44.5° - - 1014.0
2/27 5:40am 52 4 G 6 45° 95% - - 44° 48.8° 44.5° - - 1014.0
2/27 5:30am 51 5 G 7 45° 94% - - 43° 48.8° 44.5° - - 1014.0
2/27 5:20am 55 4 G 7 47° 95% - - 46° 48.8° 45° - - 1014.0
2/27 5:10am 53 3 G 4 47° 95% - - 46° 48.8° 45° - - 1014.0
2/27 5:00am 72 3 G 6 47° 95% - - 46° 48.8° 45° - - 1014.0
2/27 4:50am 48 4 G 5 46° 94% - - 44° 48.8° 45° - - 1014.0
2/27 4:40am 53 4 G 6 48° 94% - - 46° 48.8° 45° - - 1014.0
2/27 4:30am 74 3 G 7 48° 94% - - 47° 48.7° 45° - - 1014.0
2/27 4:20am 74 3 G 5 48° 94% - - 47° 48.5° 45° - - 1014.0
2/27 4:10am 83 5 G 8 48° 94% - - 46° 48.3° 45° - - 1014.0
2/27 4:00am 74 4 G 7 48° 94% - - 46° 48.2° 45° - - 1014.0
2/27 3:50am 78 5 G 8 48° 94% - - 46° 48.2° 45° - - 1014.0
2/27 3:40am 87 5 G 7 48° 94% - - 46° 48° 45° - - 1014.0
2/27 3:30am 76 4 G 7 47° 94% - - 45° 47.9° 45° - - 1015.0
2/27 3:20am 55 3 G 5 47° 93% - - 45° 47.9° 45° - - 1015.0
2/27 3:10am 79 4 G 7 47° 93% - - 45° 47.9° 45° - - 1015.0
2/27 3:00am 85 4 G 6 47° 93% - - 45° 47.9° 45° - - 1015.0
2/27 2:50am 90 4 G 5 47° 93% - - 45° 47.9° 45° - - 1015.0
2/27 2:40am 76 4 G 6 46° 93% - - 44° 47.9° 45° - - 1015.0
2/27 2:30am 70 4 G 6 46° 93% - - 44° 47.9° 45° - - 1016.0
2/27 2:20am 61 4 G 6 45° 92% - - 43° 47.9° 45° - - 1016.0
2/27 2:10am 57 3 G 5 46° 89% - - 43° 47.9° 45° - - 1016.0
2/27 2:00am 72 3 G 5 47° 86% - - 43° 47.9° 45° - - 1016.0
2/27 1:50am 91 3 G 4 47° 83% - - 42° 47.9° 45° - - 1016.0
2/27 1:40am 107 3 G 4 47° 80% - - 41° 47.9° 45° - - 1016.0
2/27 1:30am 106 4 G 6 47° 76% - - 40° 47.9° 45° - - 1017.0
2/27 1:20am 109 3 G 6 47° 72% - - 39° 47.9° 45° - - 1017.0
2/27 1:10am 98 3 G 6 48° 73% - - 39° 47.9° 45° - - 1017.0
2/27 1:00am 147 2 G 5 47° 73% - - 39° 47.9° 45° - - 1017.0
2/27 12:50am 93 2 G 6 48° 71% - - 39° 47.9° 45° - - 1017.0
2/27 12:40am 100 4 G 9 47° 72% - - 38° 47.6° 45° - - 1017.0
2/27 12:30am 109 5 G 9 46° 72% - - 37° 46.5° 45° - - 1017.0
2/27 12:20am 114 4 G 7 45° 69% - - 36° 45.7° 45° - - 1017.0
2/27 12:10am 108 4 G 6 45° 67% - - 35° 45.6° 45.1° - - 1017.0
2/27 12:00am 96 6 G 8 45° 66% - - 35° 51.6° 42.9° - - 1017.0
2/26 11:50pm 93 6 G 8 45° 67% - - 35° 51.6° 42.9° - - 1017.0
2/26 11:40pm 98 5 G 8 45° 69% - - 36° 51.6° 42.9° - - 1018.0
2/26 11:30pm 104 4 G 6 45° 71% - - 36° 51.6° 42.9° - - 1018.0
2/26 11:20pm 111 4 G 5 44° 74% - - 37° 51.6° 42.9° - - 1018.0
2/26 11:10pm 114 3 G 6 44° 75% - - 37° 51.6° 42.9° - - 1018.0
2/26 11:00pm 115 2 G 4 44° 76% - - 37° 51.6° 42.9° - - 1018.0
2/26 10:50pm 116 2 G 4 44° 78% - - 37° 51.6° 42.9° - - 1018.0
2/26 10:40pm 122 2 G 3 43° 80% - - 38° 51.6° 42.9° - - 1018.0
2/26 10:30pm 135 1 G 2 44° 81% - - 38° 51.6° 42.9° - - 1018.0
2/26 10:20pm 142 2 G 3 44° 80% - - 38° 51.6° 42.9° - - 1018.0
2/26 10:10pm 166 2 G 5 44° 80% - - 39° 51.6° 42.9° - - 1018.0
2/26 10:00pm 164 3 G 7 45° 80% - - 39° 51.6° 42.9° - - 1018.0
2/26 9:50pm 150 3 G 7 45° 81% - - 40° 51.6° 42.9° - - 1018.0
2/26 9:40pm 139 1 G 5 45° 82% - - 40° 51.6° 42.9° - - 1018.0
2/26 9:30pm 143 2 G 3 45° 83% - - 40° 51.6° 42.9° - - 1018.0
2/26 9:20pm 157 2 G 5 45° 84% - - 41° 51.6° 42.9° - - 1018.0
2/26 9:10pm 142 2 G 5 45° 84% - - 41° 51.6° 42.9° - - 1018.0
2/26 9:00pm 108 4 G 6 45° 84% - - 41° 51.6° 42.9° - - 1018.0
2/26 8:50pm 131 2 G 6 45° 84% - - 41° 51.6° 42.9° - - 1018.0
2/26 8:40pm 134 2 G 5 45° 84% - - 41° 51.6° 42.9° - - 1018.0
2/26 8:30pm 140 2 G 4 45° 85% - - 41° 51.6° 42.9° - - 1018.0
2/26 8:20pm 131 3 G 5 45° 86% - - 41° 51.6° 42.9° - - 1018.0
2/26 8:10pm 134 2 G 5 44° 86% - - 41° 51.6° 42.9° - - 1018.0
2/26 8:00pm 152 2 G 4 44° 86% - - 40° 51.6° 42.9° - - 1018.0
2/26 7:50pm 165 3 G 4 45° 86% - - 41° 51.6° 42.9° - - 1018.0
2/26 7:40pm 171 3 G 5 44° 86% - - 40° 51.6° 42.9° - - 1018.0
2/26 7:30pm 197 3 G 4 44° 85% - - 40° 51.6° 42.9° - - 1018.0
2/26 7:20pm 209 3 G 4 44° 85% - - 40° 51.6° 42.9° - - 1018.0
2/26 7:10pm 197 3 G 5 45° 84% - - 40° 51.6° 42.9° - - 1018.0
2/26 7:00pm 206 4 G 7 45° 83% - - 40° 51.6° 42.9° - - 1018.0
2/26 6:50pm 207 6 G 11 46° 82% - - 40° 51.6° 42.9° - - 1017.0
2/26 6:40pm 215 7 G 12 46° 80% - - 40° 51.6° 42.9° - - 1017.0
2/26 6:30pm 212 7 G 11 46° 80% - - 41° 51.6° 42.9° - - 1017.0
2/26 6:20pm 210 7 G 11 47° 81% - - 41° 51.6° 42.9° - - 1017.0
2/26 6:10pm 228 7 G 12 47° 85% - - 43° 51.6° 42.9° - - 1017.0
2/26 6:00pm 231 7 G 11 47° 86% - - 43° 51.6° 42.9° - - 1017.0
2/26 5:50pm 237 7 G 10 47° 85% - - 43° 51.6° 42.9° - - 1017.0
2/26 5:40pm 227 5 G 9 48° 85% - - 43° 51.6° 42.9° - - 1017.0
2/26 5:30pm 221 6 G 9 48° 84% - - 44° 51.6° 42.9° - - 1017.0
2/26 5:20pm 216 5 G 9 48° 83% - - 44° 51.6° 42.9° - - 1017.0
2/26 5:10pm 204 7 G 12 48° 82% - - 43° 51.6° 42.9° - - 1017.0
2/26 5:00pm 202 8 G 12 49° 81% - - 43° 51.6° 42.9° - - 1016.0